createdAt,value
2022-10-17T00:01:00.777Z,5.45
2022-10-17T00:03:28.287Z,5.10
2022-10-17T00:05:58.316Z,5.65
2022-10-17T00:08:25.897Z,5.25
2022-10-17T00:10:58.451Z,6.07
2022-10-17T00:13:26.303Z,5.32
2022-10-17T00:15:53.530Z,5.55
2022-10-17T00:18:21.102Z,5.63
2022-10-17T00:20:48.345Z,5.63
2022-10-17T00:23:17.897Z,5.38
2022-10-17T00:25:45.196Z,5.03
2022-10-17T00:28:13.217Z,5.07
2022-10-17T00:30:40.941Z,5.32
2022-10-17T00:33:08.133Z,5.95
2022-10-17T00:35:35.326Z,5.75
2022-10-17T00:38:02.474Z,5.15
2022-10-17T00:40:31.192Z,5.07
2022-10-17T00:42:58.429Z,5.20
2022-10-17T00:45:27.693Z,5.53
2022-10-17T00:47:58.806Z,5.22
2022-10-17T00:50:26.699Z,4.97
2022-10-17T00:52:55.825Z,5.68
2022-10-17T00:55:25.608Z,4.75
2022-10-17T00:57:54.370Z,5.20
2022-10-17T01:00:22.010Z,5.38
2022-10-17T01:02:49.358Z,4.68
2022-10-17T01:05:18.995Z,4.90
2022-10-17T01:07:48.346Z,4.75
2022-10-17T01:10:16.702Z,4.95
2022-10-17T01:13:06.882Z,5.18
2022-10-17T01:15:44.273Z,4.25
2022-10-17T01:18:20.630Z,5.45
2022-10-17T01:21:09.798Z,5.40
2022-10-17T01:24:02.270Z,5.22
2022-10-17T01:26:41.638Z,4.93
2022-10-17T01:29:31.066Z,5.18
2022-10-17T01:32:03.220Z,5.90
2022-10-17T01:34:36.110Z,5.10
2022-10-17T01:37:09.985Z,6.10
2022-10-17T01:39:47.693Z,5.90
2022-10-17T01:42:20.112Z,5.20
2022-10-17T01:44:54.211Z,5.18
2022-10-17T01:47:27.973Z,5.05
2022-10-17T01:49:59.518Z,5.30
2022-10-17T01:52:30.549Z,4.70
2022-10-17T01:55:05.158Z,4.40
2022-10-17T01:57:37.125Z,4.60
2022-10-17T02:00:09.230Z,4.72
2022-10-17T02:02:42.394Z,4.50
2022-10-17T02:05:10.472Z,4.72
2022-10-17T02:07:37.666Z,5.05
2022-10-17T02:10:12.147Z,5.30
2022-10-17T02:12:49.711Z,5.22
2022-10-17T02:15:41.885Z,5.20
2022-10-17T02:18:25.177Z,4.45
2022-10-17T02:20:57.304Z,4.95
2022-10-17T02:23:35.647Z,4.88
2022-10-17T02:26:09.924Z,4.78
2022-10-17T02:28:43.227Z,7.20
2022-10-17T02:31:15.508Z,4.10
2022-10-17T02:33:51.235Z,4.63
2022-10-17T02:36:23.539Z,4.32
2022-10-17T02:38:52.758Z,5.20
2022-10-17T02:41:21.863Z,4.72
2022-10-17T02:43:51.100Z,5.25
2022-10-17T02:46:21.997Z,4.60
2022-10-17T02:48:55.458Z,4.68
2022-10-17T02:51:30.076Z,4.80
2022-10-17T02:54:05.255Z,5.30
2022-10-17T02:56:41.133Z,5.55
2022-10-17T02:59:11.762Z,4.97
2022-10-17T03:01:39.086Z,5.40
2022-10-17T03:04:10.303Z,4.57
2022-10-17T03:06:38.238Z,5.15
2022-10-17T03:09:06.505Z,4.80
2022-10-17T03:11:33.918Z,4.75
2022-10-17T03:14:01.433Z,5.13
2022-10-17T03:16:29.162Z,4.80
2022-10-17T03:18:56.805Z,4.70
2022-10-17T03:21:25.910Z,5.03
2022-10-17T03:23:53.120Z,5.30
2022-10-17T03:26:22.620Z,5.20
2022-10-17T03:28:53.489Z,5.25
2022-10-17T03:31:22.722Z,6.32
2022-10-17T03:33:51.090Z,7.60
2022-10-17T03:36:19.758Z,9.55
2022-10-17T03:38:49.407Z,8.38
2022-10-17T03:41:18.013Z,7.47
2022-10-17T03:43:45.176Z,7.90
2022-10-17T03:46:12.747Z,7.05
2022-10-17T03:48:40.182Z,7.22
2022-10-17T03:51:09.651Z,7.70
2022-10-17T03:53:45.290Z,7.45
2022-10-17T03:56:16.442Z,6.15
2022-10-17T03:58:45.742Z,7.22
2022-10-17T04:01:16.165Z,8.00
2022-10-17T04:03:43.792Z,7.22
2022-10-17T04:06:12.436Z,12.60
2022-10-17T04:08:42.883Z,10.63
2022-10-17T04:11:19.963Z,8.52
2022-10-17T04:13:53.027Z,7.60
2022-10-17T04:16:20.279Z,8.38
2022-10-17T04:21:27.376Z,7.45
2022-10-17T04:23:55.469Z,6.60
2022-10-17T04:26:38.898Z,7.00
2022-10-17T04:29:06.098Z,7.82
2022-10-17T04:31:33.528Z,7.40
2022-10-17T04:34:17.358Z,6.32
2022-10-17T04:36:44.804Z,6.28
2022-10-17T04:41:48.039Z,5.70
2022-10-17T04:44:15.966Z,5.90
2022-10-17T04:46:49.022Z,5.88
2022-10-17T04:49:16.253Z,6.95
2022-10-17T04:51:45.644Z,5.85
2022-10-17T04:54:23.625Z,5.20
2022-10-17T04:56:59.678Z,6.07
2022-10-17T04:59:29.012Z,6.28
2022-10-17T05:02:08.704Z,7.65
2022-10-17T05:04:37.918Z,5.75
2022-10-17T05:07:06.391Z,5.47
2022-10-17T05:09:56.473Z,5.78
2022-10-17T05:12:25.191Z,5.40
2022-10-17T05:14:53.831Z,5.15
2022-10-17T05:17:23.797Z,5.30
2022-10-17T05:19:50.962Z,5.13
2022-10-17T05:22:18.451Z,5.35
2022-10-17T05:24:45.966Z,4.97
2022-10-17T05:27:14.064Z,5.57
2022-10-17T05:29:42.694Z,4.80
2022-10-17T05:32:17.259Z,5.40
2022-10-17T05:34:45.063Z,5.78
2022-10-17T05:37:12.431Z,6.38
2022-10-17T05:39:42.661Z,10.02
2022-10-17T05:42:10.582Z,13.18
2022-10-17T05:44:39.306Z,11.50
2022-10-17T05:47:09.793Z,11.50
2022-10-17T05:49:47.372Z,9.45
2022-10-17T05:52:18.243Z,7.68
2022-10-17T05:54:59.554Z,8.25
2022-10-17T05:57:27.806Z,6.50
2022-10-17T05:59:56.231Z,5.68
2022-10-17T06:02:25.057Z,5.80
2022-10-17T06:04:52.498Z,6.05
2022-10-17T06:07:21.764Z,9.23
2022-10-17T06:09:49.420Z,75.25
2022-10-17T06:12:16.957Z,76.15
2022-10-17T06:14:44.993Z,36.25
2022-10-17T06:17:16.267Z,30.55
2022-10-17T06:19:46.112Z,31.08
2022-10-17T06:22:15.285Z,21.65
2022-10-17T06:24:43.110Z,18.92
2022-10-17T06:27:12.277Z,21.27
2022-10-17T06:29:41.277Z,16.38
2022-10-17T06:32:12.591Z,21.08
2022-10-17T06:34:44.861Z,18.75
2022-10-17T06:37:12.240Z,18.67
2022-10-17T06:39:41.063Z,15.13
2022-10-17T06:42:13.180Z,13.48
2022-10-17T06:45:10.547Z,8.98
2022-10-17T06:47:38.143Z,6.93
2022-10-17T06:50:26.958Z,8.35
2022-10-17T06:53:20.473Z,11.63
2022-10-17T06:56:10.954Z,13.95
2022-10-17T06:58:49.567Z,13.70
2022-10-17T07:01:31.759Z,13.20
2022-10-17T07:04:00.739Z,12.25
2022-10-17T07:06:31.322Z,11.65
2022-10-17T07:09:03.426Z,6.88
2022-10-17T07:11:30.938Z,5.88
2022-10-17T07:13:58.136Z,5.88
2022-10-17T07:16:25.762Z,6.22
2022-10-17T07:19:01.816Z,5.97
2022-10-17T07:21:39.016Z,5.22
2022-10-17T07:24:07.929Z,4.70
2022-10-17T07:26:35.454Z,4.68
2022-10-17T07:29:02.672Z,4.47
2022-10-17T07:31:52.082Z,4.97
2022-10-17T07:34:19.576Z,4.40
2022-10-17T07:36:48.105Z,4.80
2022-10-17T07:39:16.003Z,4.57
2022-10-17T07:41:43.119Z,4.75
2022-10-17T07:44:11.619Z,4.30
2022-10-17T07:46:45.743Z,4.22
2022-10-17T07:49:13.803Z,3.97
2022-10-17T07:51:42.026Z,4.15
2022-10-17T07:54:10.830Z,4.07
2022-10-17T07:56:38.334Z,3.85
2022-10-17T07:59:08.448Z,3.95
2022-10-17T08:01:37.219Z,3.75
2022-10-17T08:04:04.719Z,3.03
2022-10-17T08:06:31.942Z,3.58
2022-10-17T08:08:59.652Z,3.20
2022-10-17T08:11:28.381Z,3.35
2022-10-17T08:13:56.247Z,4.40
2022-10-17T08:16:23.527Z,3.58
2022-10-17T08:18:50.698Z,4.80
2022-10-17T08:21:18.030Z,20.58
2022-10-17T08:23:45.207Z,5.75
2022-10-17T08:26:16.722Z,5.55
2022-10-17T08:28:45.834Z,5.45
2022-10-17T08:31:15.005Z,10.80
2022-10-17T08:33:42.836Z,6.10
2022-10-17T08:36:12.341Z,5.57
2022-10-17T08:38:43.167Z,4.38
2022-10-17T08:41:38.874Z,5.65
2022-10-17T08:44:14.991Z,6.50
2022-10-17T08:46:45.433Z,7.13
2022-10-17T08:49:34.623Z,5.55
2022-10-17T08:52:07.419Z,6.60
2022-10-17T08:54:42.080Z,5.25
2022-10-17T08:57:13.490Z,4.10
2022-10-17T08:59:43.088Z,3.97
2022-10-17T09:02:30.156Z,3.20
2022-10-17T09:05:26.421Z,4.03
2022-10-17T09:08:02.413Z,4.30
2022-10-17T09:10:42.650Z,3.10
2022-10-17T09:13:19.571Z,3.30
2022-10-17T09:16:04.875Z,3.35
2022-10-17T09:18:35.622Z,3.95
2022-10-17T09:21:11.489Z,3.40
2022-10-17T09:23:43.983Z,3.35
2022-10-17T09:26:12.477Z,3.10
2022-10-17T09:28:41.927Z,2.80
2022-10-17T09:31:19.063Z,2.80
2022-10-17T09:33:54.371Z,2.75
2022-10-17T09:36:25.900Z,2.90
2022-10-17T09:38:55.405Z,3.20
2022-10-17T09:41:44.350Z,2.60
2022-10-17T09:44:18.482Z,2.50
2022-10-17T09:47:00.549Z,2.97
2022-10-17T09:49:33.023Z,2.53
2022-10-17T09:52:01.492Z,2.92
2022-10-17T09:54:43.456Z,2.70
2022-10-17T09:57:12.947Z,2.97
2022-10-17T09:59:41.935Z,2.60
2022-10-17T10:02:18.462Z,3.03
2022-10-17T10:05:09.554Z,3.15
2022-10-17T10:07:38.882Z,2.50
2022-10-17T10:10:22.590Z,3.30
2022-10-17T10:13:04.192Z,2.80
2022-10-17T10:15:34.695Z,39.72
2022-10-17T10:18:04.436Z,8.55
2022-10-17T10:20:35.124Z,2.75
2022-10-17T10:23:15.121Z,2.53
2022-10-17T10:26:02.610Z,3.35
2022-10-17T10:28:32.128Z,2.22
2022-10-17T10:31:02.540Z,2.55
2022-10-17T10:33:36.168Z,2.42
2022-10-17T10:36:07.880Z,2.28
2022-10-17T10:38:39.655Z,2.55
2022-10-17T10:41:08.363Z,2.08
2022-10-17T10:43:38.338Z,3.00
2022-10-17T10:46:15.785Z,2.40
2022-10-17T10:48:51.580Z,9.65
2022-10-17T10:51:24.051Z,4.75
2022-10-17T10:53:56.118Z,2.90
2022-10-17T10:56:28.466Z,2.70
2022-10-17T10:59:00.562Z,2.80
2022-10-17T11:01:33.226Z,3.20
2022-10-17T11:04:27.513Z,2.70
2022-10-17T11:07:00.906Z,2.63
2022-10-17T11:09:37.043Z,2.80
2022-10-17T11:12:10.952Z,2.53
2022-10-17T11:14:44.597Z,2.47
2022-10-17T11:17:22.081Z,2.40
2022-10-17T11:20:02.966Z,2.67
2022-10-17T11:22:33.190Z,3.25
2022-10-17T11:25:05.434Z,2.50
2022-10-17T11:27:34.601Z,7.03
2022-10-17T11:30:03.810Z,14.00
2022-10-17T11:32:37.550Z,3.33
2022-10-17T11:35:14.994Z,2.33
2022-10-17T11:37:49.012Z,2.92
2022-10-17T11:40:23.466Z,3.70
2022-10-17T11:42:58.145Z,3.30
2022-10-17T11:45:30.562Z,2.40
2022-10-17T11:48:05.037Z,5.00
2022-10-17T11:53:28.942Z,3.17
2022-10-17T11:55:59.439Z,4.35
2022-10-17T11:58:35.901Z,8.82
2022-10-17T12:01:16.511Z,3.05
2022-10-17T12:03:57.703Z,3.15
2022-10-17T12:06:37.707Z,2.03
2022-10-17T12:09:12.048Z,2.30
2022-10-17T12:11:50.838Z,2.20
2022-10-17T12:14:46.822Z,2.25
2022-10-17T12:17:29.486Z,2.08
2022-10-17T12:20:25.384Z,2.50
2022-10-17T12:25:24.466Z,2.10
2022-10-17T12:28:11.610Z,2.42
2022-10-17T12:30:51.615Z,2.85
2022-10-17T12:33:23.894Z,3.58
2022-10-17T12:36:11.747Z,3.35
2022-10-17T12:38:40.604Z,5.43
2022-10-17T12:41:07.993Z,2.30
2022-10-17T12:43:46.925Z,2.75
2022-10-17T12:46:45.326Z,2.20
2022-10-17T12:49:38.641Z,2.47
2022-10-17T12:52:29.741Z,2.08
2022-10-17T12:55:14.893Z,2.40
2022-10-17T12:57:56.639Z,2.25
2022-10-17T13:00:33.729Z,2.13
2022-10-17T13:03:13.094Z,2.05
2022-10-17T13:05:47.320Z,2.20
2022-10-17T13:10:51.557Z,7.78
2022-10-17T13:13:22.938Z,3.75
2022-10-17T13:15:52.113Z,2.15
2022-10-17T13:18:22.877Z,2.30
2022-10-17T13:21:02.439Z,2.13
2022-10-17T13:23:34.599Z,2.72
2022-10-17T13:26:14.769Z,2.67
2022-10-17T13:28:42.835Z,2.88
2022-10-17T13:31:28.875Z,4.28
2022-10-17T13:33:58.210Z,3.45
2022-10-17T13:36:26.610Z,2.10
2022-10-17T13:38:54.266Z,2.72
2022-10-17T13:41:41.782Z,2.45
2022-10-17T13:44:14.270Z,2.78
2022-10-17T13:46:42.004Z,2.38
2022-10-17T13:49:23.313Z,3.05
2022-10-17T13:51:55.366Z,4.88
2022-10-17T13:54:38.359Z,5.13
2022-10-17T13:57:17.870Z,8.02
2022-10-17T13:59:50.498Z,29.83
2022-10-17T14:02:20.941Z,3.35
2022-10-17T14:05:16.076Z,3.30
2022-10-17T14:08:11.858Z,3.00
2022-10-17T14:10:39.763Z,2.78
2022-10-17T14:13:19.059Z,6.72
2022-10-17T14:15:47.077Z,6.43
2022-10-17T14:18:20.894Z,6.22
2022-10-17T14:23:39.586Z,4.82
2022-10-17T14:26:10.691Z,5.70
2022-10-17T14:28:41.552Z,7.00
2022-10-17T14:31:20.064Z,7.35
2022-10-17T14:33:50.845Z,8.02
2022-10-17T14:36:20.402Z,4.97
2022-10-17T14:38:50.501Z,4.78
2022-10-17T14:41:41.995Z,4.13
2022-10-17T14:44:19.742Z,5.70
2022-10-17T14:46:50.936Z,7.03
2022-10-17T14:49:25.351Z,6.47
2022-10-17T14:52:27.530Z,4.85
2022-10-17T14:54:55.845Z,5.13
2022-10-17T14:57:27.392Z,6.90
2022-10-17T14:59:57.310Z,11.50
2022-10-17T15:02:25.252Z,6.95
2022-10-17T15:04:52.986Z,5.95
2022-10-17T15:07:21.453Z,4.18
2022-10-17T15:09:50.741Z,3.47
2022-10-17T15:12:20.793Z,8.70
2022-10-17T15:14:48.620Z,6.28
2022-10-17T15:17:20.995Z,4.70
2022-10-17T15:19:51.677Z,5.50
2022-10-17T15:22:19.723Z,7.15
2022-10-17T15:24:47.029Z,9.90
2022-10-17T15:27:16.541Z,9.55
2022-10-17T15:29:44.191Z,9.30
2022-10-17T15:32:11.927Z,10.30
2022-10-17T15:34:40.936Z,34.55
2022-10-17T15:37:16.717Z,10.80
2022-10-17T15:39:45.383Z,7.32
2022-10-17T15:42:12.869Z,8.07
2022-10-17T15:44:44.020Z,6.93
2022-10-17T15:47:21.209Z,9.25
2022-10-17T15:49:49.959Z,9.10
2022-10-17T15:52:17.263Z,11.07
2022-10-17T15:54:44.736Z,12.35
2022-10-17T15:57:17.536Z,12.55
2022-10-17T15:59:47.161Z,19.58
2022-10-17T16:02:14.865Z,47.63
2022-10-17T16:04:42.565Z,40.28
2022-10-17T16:07:11.374Z,15.70
2022-10-17T16:09:38.958Z,11.43
2022-10-17T16:12:10.764Z,11.65
2022-10-17T16:14:38.367Z,14.50
2022-10-17T16:17:05.741Z,11.95
2022-10-17T16:19:33.087Z,14.55
2022-10-17T16:22:04.558Z,17.10
2022-10-17T16:24:33.698Z,21.38
2022-10-17T16:27:01.148Z,26.08
2022-10-17T16:29:28.448Z,53.65
2022-10-17T16:31:56.149Z,49.30
2022-10-17T16:34:24.064Z,31.42
2022-10-17T16:36:51.277Z,24.23
2022-10-17T16:39:18.566Z,16.77
2022-10-17T16:41:47.239Z,17.55
2022-10-17T16:44:14.808Z,15.73
2022-10-17T16:46:42.404Z,12.52
2022-10-17T16:49:10.132Z,11.77
2022-10-17T16:51:37.528Z,14.52
2022-10-17T16:54:04.880Z,17.00
2022-10-17T16:56:33.025Z,131.20
2022-10-17T16:59:02.174Z,90.82
2022-10-17T17:01:29.574Z,27.85
2022-10-17T17:03:57.198Z,16.23
2022-10-17T17:06:26.804Z,15.25
2022-10-17T17:08:54.451Z,14.40
2022-10-17T17:11:24.133Z,14.15
2022-10-17T17:13:51.564Z,13.77
2022-10-17T17:16:22.758Z,13.70
2022-10-17T17:18:54.318Z,14.50
2022-10-17T17:21:21.770Z,15.70
2022-10-17T17:23:49.073Z,14.85
2022-10-17T17:26:18.448Z,14.65
2022-10-17T17:28:46.272Z,14.32
2022-10-17T17:31:15.884Z,12.23
2022-10-17T17:33:46.823Z,11.77
2022-10-17T17:36:20.021Z,14.52
2022-10-17T17:38:47.703Z,18.40
2022-10-17T17:41:16.446Z,17.10
2022-10-17T17:43:45.287Z,12.05
2022-10-17T17:46:13.201Z,7.07
2022-10-17T17:48:41.582Z,7.38
2022-10-17T17:51:12.568Z,5.55
2022-10-17T17:53:40.221Z,5.32
2022-10-17T17:56:10.211Z,5.05
2022-10-17T17:58:37.774Z,5.43
2022-10-17T18:01:11.344Z,5.22
2022-10-17T18:03:41.188Z,5.47
2022-10-17T18:06:10.199Z,5.90
2022-10-17T18:08:37.417Z,4.97
2022-10-17T18:11:04.902Z,4.90
2022-10-17T18:13:32.274Z,4.60
2022-10-17T18:16:01.200Z,4.95
2022-10-17T18:18:29.874Z,4.45
2022-10-17T18:21:00.871Z,6.13
2022-10-17T18:23:29.535Z,6.60
2022-10-17T18:25:58.038Z,7.43
2022-10-17T18:28:25.446Z,7.60
2022-10-17T18:30:53.110Z,8.98
2022-10-17T18:33:20.694Z,9.05
2022-10-17T18:35:47.933Z,9.35
2022-10-17T18:38:15.119Z,10.27
2022-10-17T18:40:46.078Z,10.30
2022-10-17T18:43:16.072Z,10.57
2022-10-17T18:45:43.370Z,9.93
2022-10-17T18:48:10.647Z,8.70
2022-10-17T18:50:39.083Z,9.68
2022-10-17T18:53:06.464Z,8.65
2022-10-17T18:55:33.648Z,7.88
2022-10-17T18:58:02.373Z,7.55
2022-10-17T19:00:30.697Z,8.20
2022-10-17T19:02:57.986Z,8.65
2022-10-17T19:05:25.294Z,8.82
2022-10-17T19:07:52.650Z,8.75
2022-10-17T19:10:19.901Z,8.73
2022-10-17T19:12:47.051Z,9.07
2022-10-17T19:15:15.853Z,9.13
2022-10-17T19:17:43.370Z,9.30
2022-10-17T19:20:11.061Z,8.75
2022-10-17T19:22:38.379Z,9.18
2022-10-17T19:25:06.333Z,8.75
2022-10-17T19:27:33.737Z,8.27
2022-10-17T19:30:01.098Z,6.68
2022-10-17T19:32:29.785Z,6.60
2022-10-17T19:34:57.178Z,6.10
2022-10-17T19:37:24.877Z,6.45
2022-10-17T19:39:52.018Z,6.97
2022-10-17T19:42:19.367Z,7.47
2022-10-17T19:44:46.508Z,8.02
2022-10-17T19:47:13.954Z,6.78
2022-10-17T19:49:46.468Z,7.38
2022-10-17T19:54:43.399Z,8.70
2022-10-17T19:57:10.810Z,8.52
2022-10-17T19:59:38.161Z,7.60
2022-10-17T20:02:05.585Z,9.10
2022-10-17T20:04:33.047Z,10.60
2022-10-17T20:07:01.946Z,11.65
2022-10-17T20:09:29.199Z,13.57
2022-10-17T20:11:56.490Z,12.30
2022-10-17T20:14:24.037Z,10.90
2022-10-17T20:16:52.454Z,11.82
2022-10-17T20:19:20.386Z,11.10
2022-10-17T20:21:47.880Z,11.48
2022-10-17T20:24:16.969Z,10.98
2022-10-17T20:26:45.173Z,12.25
2022-10-17T20:29:15.911Z,11.13
2022-10-17T20:31:44.772Z,10.70
2022-10-17T20:34:13.873Z,11.55
2022-10-17T20:36:41.491Z,12.30
2022-10-17T20:39:11.045Z,11.52
2022-10-17T20:41:39.954Z,11.13
2022-10-17T20:44:07.676Z,11.05
2022-10-17T20:46:37.319Z,10.63
2022-10-17T20:49:07.384Z,10.70
2022-10-17T20:51:34.719Z,10.50
2022-10-17T20:54:03.042Z,11.57
2022-10-17T20:56:32.980Z,11.18
2022-10-17T20:59:02.984Z,10.45
2022-10-17T21:01:32.527Z,10.55
2022-10-17T21:04:10.584Z,10.43
2022-10-17T21:06:43.626Z,9.75
2022-10-17T21:09:10.807Z,9.60
2022-10-17T21:11:38.073Z,8.82
2022-10-17T21:14:07.889Z,9.23
2022-10-17T21:16:36.939Z,9.57
2022-10-17T21:19:05.273Z,8.85
2022-10-17T21:21:34.245Z,9.13
2022-10-17T21:24:03.293Z,9.75
2022-10-17T21:26:33.026Z,9.90
2022-10-17T21:29:05.543Z,10.57
2022-10-17T21:31:35.712Z,9.82
2022-10-17T21:34:06.956Z,10.75
2022-10-17T21:36:34.413Z,10.25
2022-10-17T21:39:01.952Z,10.40
2022-10-17T21:41:30.332Z,10.63
2022-10-17T21:44:00.002Z,10.45
2022-10-17T21:46:27.558Z,10.07
2022-10-17T21:48:56.286Z,10.63
2022-10-17T21:51:25.367Z,9.95
2022-10-17T21:53:53.871Z,9.75
2022-10-17T21:56:23.240Z,9.45
2022-10-17T21:58:51.820Z,9.50
2022-10-17T22:01:22.236Z,9.35
2022-10-17T22:03:51.049Z,9.20
2022-10-17T22:09:12.541Z,9.02
2022-10-17T22:11:40.019Z,8.73
2022-10-17T22:14:13.033Z,9.82
2022-10-17T22:16:40.825Z,9.43
2022-10-17T22:19:08.923Z,9.43
2022-10-17T22:21:37.729Z,9.20
2022-10-17T22:24:08.280Z,8.32
2022-10-17T22:26:37.546Z,8.63
2022-10-17T22:29:06.239Z,7.72
2022-10-17T22:31:34.106Z,7.90
2022-10-17T22:34:01.256Z,9.18
2022-10-17T22:36:28.585Z,8.35
2022-10-17T22:38:57.555Z,8.00
2022-10-17T22:41:24.631Z,7.63
2022-10-17T22:43:51.901Z,8.07
2022-10-17T22:46:19.038Z,8.07
2022-10-17T22:48:46.298Z,7.07
2022-10-17T22:51:14.044Z,8.07
2022-10-17T22:53:41.658Z,8.07
2022-10-17T22:56:13.427Z,7.95
2022-10-17T22:58:40.836Z,8.38
2022-10-17T23:01:09.332Z,6.88
2022-10-17T23:03:36.746Z,8.10
2022-10-17T23:06:04.345Z,7.93
2022-10-17T23:08:31.685Z,8.02
2022-10-17T23:10:59.359Z,6.82
2022-10-17T23:13:28.169Z,7.05
2022-10-17T23:15:57.226Z,7.47
2022-10-17T23:18:25.893Z,7.03
2022-10-17T23:20:53.309Z,6.05
2022-10-17T23:23:21.281Z,6.47
2022-10-17T23:25:49.588Z,6.40
2022-10-17T23:28:17.427Z,6.50
2022-10-17T23:30:46.164Z,6.15
2022-10-17T23:33:13.919Z,6.22
2022-10-17T23:35:41.917Z,5.88
2022-10-17T23:38:09.825Z,5.80
2022-10-17T23:40:37.311Z,6.03
2022-10-17T23:43:04.969Z,6.15
2022-10-17T23:45:35.969Z,5.75
2022-10-17T23:48:06.037Z,5.75
2022-10-17T23:50:33.252Z,5.53
2022-10-17T23:53:00.518Z,5.55
2022-10-17T23:55:28.071Z,5.38
2022-10-17T23:57:55.391Z,5.95
